• Join FlightAware (Why Join?)
  • Login
  • US Flag 
06:26AM EDT


 

Airport Tracker/Info


-or-


 

Live Flight TrackerFlight Track Log ✈ KAP444 ✈ 05-May-2013 ✈ KOGS - KALB

Flight Track Log - Related Links

Times and Time Zones

All times are in EDT time to prevent confusion due to time zone crossing. See the KAP444 flight status page for this flight to view local times or setup timezone preferences in your user account.

Time Position Orientation Groundspeed Altitude Reporting Facility
EDT Latitude Longitude Course Direction KTS MPH feet Rate Location/Type
07:16AM 44.5414 -75.2597 124° Southeast 98 113 6,400  Level Boston Center
07:17AM 44.5131 -75.2319 145° Southeast 116 133 7,200 600 Climbing Boston Center
07:18AM 44.4781 -75.2128 159° South 121 139 7,700 180 Climbing Boston Center
07:19AM 44.4414 -75.1764 145° Southeast 141 162 7,600 -60 Descending Boston Center
07:20AM 44.3983 -75.1453 153° Southeast 163 188 7,600  Level Boston Center
07:21AM 44.4985 -75.3020 148° Southeast  Level Estimated
07:21AM 44.3594 -75.1086 146° Southeast 168 193 7,600  Level Boston Center
07:22AM 44.4781 -75.2597 124° Southeast  Level FlightAware Approximate
07:22AM 44.3228 -75.0722 145° Southeast 168 193 7,700  Level Boston Center
07:23AM 44.2819 -75.0414 152° Southeast 163 188 7,700  Level Boston Center
07:24AM 44.2411 -75.0047 147° Southeast 163 188 7,700  Level Boston Center
07:25AM 44.2022 -74.9711 148° Southeast 163 188 7,700 -60 Level Boston Center
07:26AM 44.1633 -74.9406 151° Southeast 163 188 7,600  Descending Boston Center
07:27AM 44.1222 -74.9100 152° Southeast 163 188 7,700  Climbing Boston Center
07:28AM 44.0833 -74.8767 148° Southeast 163 188 7,700  Level Boston Center
07:29AM 44.0425 -74.8431 149° Southeast 163 188 7,700  Level Boston Center
07:30AM 44.0036 -74.8069 146° Southeast 163 188 7,700 -60 Level Boston Center
07:31AM 43.9625 -74.7764 152° Southeast 163 188 7,600  Descending Boston Center
07:32AM 43.9214 -74.7431 150° Southeast 163 188 7,700 60 Climbing Boston Center
07:33AM 43.8847 -74.7131 149° Southeast 163 188 7,800  Climbing Boston Center
07:34AM 43.8414 -74.6825 153° Southeast 163 188 7,800  Level Boston Center
07:35AM 43.8025 -74.6494 148° Southeast 163 188 7,800  Level Boston Center
07:36AM 43.7656 -74.6136 145° Southeast 163 188 7,800 -60 Level Boston Center
07:37AM 43.7244 -74.5833 152° Southeast 163 188 7,700  Descending Boston Center
07:38AM 43.6856 -74.5503 148° Southeast 163 188 7,800  Climbing Boston Center
07:39AM 43.6467 -74.5175 149° Southeast 163 188 7,700 -120 Descending Boston Center
07:40AM 43.6056 -74.4875 152° Southeast 163 188 7,600 -120 Descending Boston Center
07:41AM 43.5664 -74.4517 146° Southeast 163 188 7,500 -60 Descending Boston Center
07:42AM 43.5253 -74.4217 152° Southeast 163 188 7,500  Level Boston Center
07:43AM 43.4842 -74.3917 152° Southeast 163 188 7,500  Level Boston Center
07:44AM 43.4450 -74.3617 151° Southeast 163 188 7,500 60 Level Boston Center
07:44AM 43.4347 -74.3500 141° Southeast 159 183 7,600  Climbing Boston Center
07:45AM 43.4081 -74.3292 150° Southeast 163 188 7,500  Descending Boston Center
07:46AM 43.3958 -74.3175 145° Southeast 159 183 7,600  Climbing Boston Center
07:46AM 43.3711 -74.2939 145° Southeast 163 188 7,500 -120 Descending Boston Center
07:47AM 43.3589 -74.2847 151° Southeast 159 183 7,500 -240 Level Boston Center
07:47AM 43.3361 -74.2614 143° Southeast 163 188 7,300 -240 Descending Boston Center
07:47AM 43.3217 -74.2522 155° Southeast 165 190 7,300 -300 Level Boston Center
07:48AM 43.2908 -74.2286 151° Southeast 168 193 7,000 -300 Descending Boston Center
07:48AM 43.2806 -74.2225 157° South 173 199 7,000 -240 Level Boston Center
07:49AM 43.2517 -74.2017 152° Southeast 168 193 6,800 -300 Descending Boston Center
07:50AM 43.2083 -74.1692 151° Southeast 174 200 6,500 -360 Descending Boston Center
07:51AM 43.1694 -74.1367 149° Southeast 174 200 6,100 -360 Descending Boston Center
07:52AM 43.1219 -74.0986 150° Southeast 180 207 5,800 -360 Descending Boston Center
07:53AM 43.0850 -74.0661 147° Southeast 180 207 5,400 -420 Descending Boston Center
07:53AM 43.0725 -74.0572 153° Southeast 178 205 5,300 -540 Descending Boston Center
07:54AM 43.0353 -74.0281 150° Southeast 180 207 4,900 -420 Descending Boston Center
07:54AM 43.0272 -74.0192 141° Southeast 187 215 4,900 -300 Level Boston Center
07:55AM 42.9983 -73.9931 147° Southeast 180 207 4,600 -420 Descending Boston Center
07:56AM 42.9797 -73.9811 155° Southeast 179 206 4,500 -600 Descending Boston Center
07:56AM 42.9531 -73.9436 134° Southeast 180 207 3,900 -780 Descending Boston Center
07:57AM 42.9164 -73.8861 131° Southeast 180 207 3,100 -720 Descending Boston Center
07:58AM 42.8878 -73.8428 132° Southeast 180 207 2,500 -540 Descending Boston Center
07:59AM 42.8361 -73.8106 155° Southeast 173 199 2,000 -660 Descending Boston Center
08:00AM 42.7944 -73.8094 179° South 137 158 1,200 -780 Descending Boston Center
08:02AM 42.7589 -73.8058 176° South 99 114 400 -720 Descending Boston Center
08:04AM 42.7491 -73.8020 160° South  Level Estimated
08:11AM 42.7491 -73.8020 160° South  Level Estimated
08:12AM 42.7491 -73.8020 160° South  Level Estimated
08:13AM 42.7491 -73.8020 160° South  Level Estimated